^^
Daily Summary for August 15, 2021 Units:  Both    English   Metric
Daily Weekly Monthly Yearly Custom
  High: Low: Average:
Temperature: 95.0 °F /  35 °C 73.0 °F /  22.8 °C 82.1 °F /  27.8 °C
Dew Point: 58.0 °F /  14.4 °C 48.0 °F /  8.9 °C 53.1 °F /  11.7 °C
Humidity: 50% 26% 38%
Wind Speed: 14mph /  22.5km/h - 3.1mph /  5km/h
Wind Gust: 14mph /  22.5km/h - -
Wind- - SW
Pressure: 30.0 in /  1015.8 hPa 29.9 in /  1012.4 hPa -
Precipitation: 0.000 in /  0 mm    
Historical Graphs
 
 
Tabular Data for August 15, 2021
Time Temperature Dew Point Pressure Wind Wind Speed Wind Gust Humidity Rainfall Rate (Hourly) solar
00:04 76.0 °F /  24.4 °C 53.0 °F /  11.7 °C 30.0in /  1015.8hPa Calm     44% 0.000in /  0mm 0.00 W/m2
00:09 76.0 °F /  24.4 °C 53.0 °F /  11.7 °C 30.0in /  1015.8hPa Calm     44% 0.000in /  0mm 0.00 W/m2
00:14 76.0 °F /  24.4 °C 53.0 °F /  11.7 °C 30.0in /  1015.8hPa Calm     45% 0.000in /  0mm 0.00 W/m2
00:19 76.0 °F /  24.4 °C 53.0 °F /  11.7 °C 30.0in /  1015.8hPa Calm     45% 0.000in /  0mm 0.00 W/m2
00:24 76.0 °F /  24.4 °C 53.0 °F /  11.7 °C 30.0in /  1015.8hPa Calm     46% 0.000in /  0mm 0.00 W/m2
00:29 75.0 °F /  23.9 °C 53.0 °F /  11.7 °C 30.0in /  1015.8hPa Calm     46% 0.000in /  0mm 0.00 W/m2
00:34 75.0 °F /  23.9 °C 54.0 °F /  12.2 °C 30.0in /  1015.8hPa Calm     47% 0.000in /  0mm 0.00 W/m2
00:39 75.0 °F /  23.9 °C 55.0 °F /  12.8 °C 30.0in /  1015.8hPa Calm     49% 0.000in /  0mm 0.00 W/m2
00:44 75.0 °F /  23.9 °C 54.0 °F /  12.2 °C 30.0in /  1015.8hPa Calm     47% 0.000in /  0mm 0.00 W/m2
00:49 75.0 °F /  23.9 °C 54.0 °F /  12.2 °C 30.0in /  1015.8hPa Calm     47% 0.000in /  0mm 0.00 W/m2
00:54 75.0 °F /  23.9 °C 53.0 °F /  11.7 °C 30.0in /  1015.8hPa Calm     47% 0.000in /  0mm 0.00 W/m2
00:59 75.0 °F /  23.9 °C 53.0 °F /  11.7 °C 30.0in /  1015.8hPa Calm     47% 0.000in /  0mm 0.00 W/m2
01:04 75.0 °F /  23.9 °C 53.0 °F /  11.7 °C 30.0in /  1015.8hPa Calm     47% 0.000in /  0mm 0.00 W/m2
01:09 75.0 °F /  23.9 °C 53.0 °F /  11.7 °C 30.0in /  1015.8hPa Calm     47% 0.000in /  0mm 0.00 W/m2
01:14 75.0 °F /  23.9 °C 53.0 °F /  11.7 °C 30.0in /  1015.8hPa East 2mph /  3.2km/h 1mph /  1.6km/h 47% 0.000in /  0mm 0.00 W/m2
01:19 75.0 °F /  23.9 °C 54.0 °F /  12.2 °C 30.0in /  1015.8hPa East 2mph /  3.2km/h 2mph /  3.2km/h 48% 0.000in /  0mm 0.00 W/m2
01:24 75.0 °F /  23.9 °C 55.0 °F /  12.8 °C 30.0in /  1015.8hPa Calm     50% 0.000in /  0mm 0.00 W/m2
01:29 75.0 °F /  23.9 °C 54.0 °F /  12.2 °C 30.0in /  1015.8hPa Calm     49% 0.000in /  0mm 0.00 W/m2
01:34 75.0 °F /  23.9 °C 53.0 °F /  11.7 °C 30.0in /  1015.8hPa Calm     47% 0.000in /  0mm 0.00 W/m2
01:39 75.0 °F /  23.9 °C 53.0 °F /  11.7 °C 30.0in /  1015.8hPa Calm     47% 0.000in /  0mm 0.00 W/m2
01:44 75.0 °F /  23.9 °C 53.0 °F /  11.7 °C 30.0in /  1015.8hPa Calm     46% 0.000in /  0mm 0.00 W/m2
01:49 75.0 °F /  23.9 °C 53.0 °F /  11.7 °C 30.0in /  1015.8hPa Calm     47% 0.000in /  0mm 0.00 W/m2
01:54 75.0 °F /  23.9 °C 53.0 °F /  11.7 °C 30.0in /  1015.8hPa Calm     47% 0.000in /  0mm 0.00 W/m2
01:59 75.0 °F /  23.9 °C 53.0 °F /  11.7 °C 30.0in /  1015.8hPa Calm     47% 0.000in /  0mm 0.00 W/m2
02:04 75.0 °F /  23.9 °C 53.0 °F /  11.7 °C 30.0in /  1015.8hPa Calm     47% 0.000in /  0mm 0.00 W/m2
02:09 75.0 °F /  23.9 °C 53.0 °F /  11.7 °C 30.0in /  1015.8hPa Calm     47% 0.000in /  0mm 0.00 W/m2
02:14 75.0 °F /  23.9 °C 53.0 °F /  11.7 °C 30.0in /  1015.8hPa Calm     47% 0.000in /  0mm 0.00 W/m2
02:19 75.0 °F /  23.9 °C 53.0 °F /  11.7 °C 30.0in /  1015.8hPa Calm     46% 0.000in /  0mm 0.00 W/m2
02:24 75.0 °F /  23.9 °C 52.0 °F /  11.1 °C 30.0in /  1015.8hPa Calm     46% 0.000in /  0mm 0.00 W/m2
02:29 75.0 °F /  23.9 °C 52.0 °F /  11.1 °C 30.0in /  1015.8hPa East 4mph /  6.4km/h 1mph /  1.6km/h 46% 0.000in /  0mm 0.00 W/m2
02:34 75.0 °F /  23.9 °C 52.0 °F /  11.1 °C 30.0in /  1015.8hPa ESE 2mph /  3.2km/h 3mph /  4.8km/h 46% 0.000in /  0mm 0.00 W/m2
02:39 75.0 °F /  23.9 °C 52.0 °F /  11.1 °C 30.0in /  1015.8hPa Calm   2mph /  3.2km/h 46% 0.000in /  0mm 0.00 W/m2
02:44 74.0 °F /  23.3 °C 52.0 °F /  11.1 °C 30.0in /  1015.8hPa ENE 4mph /  6.4km/h 1mph /  1.6km/h 45% 0.000in /  0mm 0.00 W/m2
02:49 74.0 °F /  23.3 °C 53.0 °F /  11.7 °C 30.0in /  1015.8hPa ENE 4mph /  6.4km/h 3mph /  4.8km/h 47% 0.000in /  0mm 0.00 W/m2
02:54 74.0 °F /  23.3 °C 53.0 °F /  11.7 °C 30.0in /  1015.8hPa Calm   2mph /  3.2km/h 47% 0.000in /  0mm 0.00 W/m2
02:58 74.0 °F /  23.3 °C 52.0 °F /  11.1 °C 30.0in /  1015.8hPa East 2mph /  3.2km/h   45% 0.000in /  0mm 0.00 W/m2
03:04 74.0 °F /  23.3 °C 52.0 °F /  11.1 °C 30.0in /  1015.8hPa East 2mph /  3.2km/h 2mph /  3.2km/h 45% 0.000in /  0mm 0.00 W/m2
03:09 74.0 °F /  23.3 °C 52.0 °F /  11.1 °C 30.0in /  1015.8hPa Calm     46% 0.000in /  0mm 0.00 W/m2
03:14 74.0 °F /  23.3 °C 52.0 °F /  11.1 °C 30.0in /  1015.8hPa Calm     45% 0.000in /  0mm 0.00 W/m2
03:19 74.0 °F /  23.3 °C 51.0 °F /  10.6 °C 30.0in /  1015.8hPa Calm     44% 0.000in /  0mm 0.00 W/m2
03:24 74.0 °F /  23.3 °C 52.0 °F /  11.1 °C 30.0in /  1015.8hPa Calm     45% 0.000in /  0mm 0.00 W/m2
03:29 74.0 °F /  23.3 °C 52.0 °F /  11.1 °C 30.0in /  1015.8hPa Calm     45% 0.000in /  0mm 0.00 W/m2
03:34 74.0 °F /  23.3 °C 51.0 °F /  10.6 °C 30.0in /  1015.8hPa Calm     44% 0.000in /  0mm 0.00 W/m2
03:39 74.0 °F /  23.3 °C 51.0 °F /  10.6 °C 30.0in /  1015.8hPa Calm     44% 0.000in /  0mm 0.00 W/m2
03:44 74.0 °F /  23.3 °C 51.0 °F /  10.6 °C 30.0in /  1015.8hPa Calm     44% 0.000in /  0mm 0.00 W/m2
03:49 74.0 °F /  23.3 °C 51.0 °F /  10.6 °C 30.0in /  1015.8hPa Calm     45% 0.000in /  0mm 0.00 W/m2
03:54 74.0 °F /  23.3 °C 52.0 °F /  11.1 °C 30.0in /  1015.8hPa Calm     46% 0.000in /  0mm 0.00 W/m2
03:59 74.0 °F /  23.3 °C 52.0 °F /  11.1 °C 30.0in /  1015.8hPa Calm     46% 0.000in /  0mm 0.00 W/m2
04:04 74.0 °F /  23.3 °C 51.0 °F /  10.6 °C 30.0in /  1015.8hPa Calm     45% 0.000in /  0mm 0.00 W/m2
04:09 74.0 °F /  23.3 °C 51.0 °F /  10.6 °C 30.0in /  1015.8hPa Calm     46% 0.000in /  0mm 0.00 W/m2
04:14 73.0 °F /  22.8 °C 51.0 °F /  10.6 °C 30.0in /  1015.8hPa Calm     46% 0.000in /  0mm 0.00 W/m2
04:19 73.0 °F /  22.8 °C 51.0 °F /  10.6 °C 30.0in /  1015.8hPa Calm     45% 0.000in /  0mm 0.00 W/m2
04:24 73.0 °F /  22.8 °C 50.0 °F /  10 °C 30.0in /  1015.8hPa Calm     44% 0.000in /  0mm 0.00 W/m2
04:29 73.0 °F /  22.8 °C 50.0 °F /  10 °C 30.0in /  1015.8hPa Calm     44% 0.000in /  0mm 0.00 W/m2
04:34 73.0 °F /  22.8 °C 50.0 °F /  10 °C 30.0in /  1015.8hPa Calm     45% 0.000in /  0mm 0.00 W/m2
04:39 73.0 °F /  22.8 °C 50.0 °F /  10 °C 30.0in /  1015.8hPa Calm     45% 0.000in /  0mm 0.00 W/m2
04:44 73.0 °F /  22.8 °C 50.0 °F /  10 °C 30.0in /  1015.8hPa Calm     45% 0.000in /  0mm 0.00 W/m2
04:49 73.0 °F /  22.8 °C 50.0 °F /  10 °C 30.0in /  1015.8hPa Calm     45% 0.000in /  0mm 0.00 W/m2
04:54 73.0 °F /  22.8 °C 50.0 °F /  10 °C 30.0in /  1015.8hPa Calm     45% 0.000in /  0mm 0.00 W/m2
04:59 73.0 °F /  22.8 °C 50.0 °F /  10 °C 30.0in /  1015.8hPa Calm     45% 0.000in /  0mm 0.00 W/m2
05:04 73.0 °F /  22.8 °C 50.0 °F /  10 °C 30.0in /  1015.8hPa Calm     45% 0.000in /  0mm 0.00 W/m2
05:09 73.0 °F /  22.8 °C 50.0 °F /  10 °C 30.0in /  1015.8hPa Calm     44% 0.000in /  0mm 0.00 W/m2
05:14 73.0 °F /  22.8 °C 50.0 °F /  10 °C 30.0in /  1015.8hPa Calm     45% 0.000in /  0mm 0.00 W/m2
05:19 73.0 °F /  22.8 °C 50.0 °F /  10 °C 30.0in /  1015.8hPa Calm     44% 0.000in /  0mm 0.00 W/m2
05:24 73.0 °F /  22.8 °C 50.0 °F /  10 °C 30.0in /  1015.8hPa Calm     45% 0.000in /  0mm 0.00 W/m2
05:29 73.0 °F /  22.8 °C 50.0 °F /  10 °C 30.0in /  1015.8hPa Calm     44% 0.000in /  0mm 0.00 W/m2
05:34 73.0 °F /  22.8 °C 49.0 °F /  9.4 °C 30.0in /  1015.8hPa Calm     43% 0.000in /  0mm 0.00 W/m2
05:39 73.0 °F /  22.8 °C 49.0 °F /  9.4 °C 30.0in /  1015.8hPa Calm     43% 0.000in /  0mm 0.00 W/m2
05:44 73.0 °F /  22.8 °C 49.0 °F /  9.4 °C 30.0in /  1015.8hPa Calm     43% 0.000in /  0mm 0.00 W/m2
05:49 73.0 °F /  22.8 °C 49.0 °F /  9.4 °C 30.0in /  1015.8hPa Calm     43% 0.000in /  0mm 0.00 W/m2
05:54 73.0 °F /  22.8 °C 49.0 °F /  9.4 °C 30.0in /  1015.8hPa Calm     43% 0.000in /  0mm 0.00 W/m2
05:59 73.0 °F /  22.8 °C 49.0 °F /  9.4 °C 30.0in /  1015.8hPa Calm     43% 0.000in /  0mm 0.00 W/m2
06:04 73.0 °F /  22.8 °C 49.0 °F /  9.4 °C 30.0in /  1015.8hPa Calm     43% 0.000in /  0mm 0.00 W/m2
06:09 73.0 °F /  22.8 °C 49.0 °F /  9.4 °C 30.0in /  1015.8hPa Calm     42% 0.000in /  0mm 0.00 W/m2
06:14 73.0 °F /  22.8 °C 49.0 °F /  9.4 °C 30.0in /  1015.8hPa Calm     42% 0.000in /  0mm 0.00 W/m2
06:19 73.0 °F /  22.8 °C 49.0 °F /  9.4 °C 30.0in /  1015.8hPa Calm     42% 0.000in /  0mm 0.00 W/m2
06:24 73.0 °F /  22.8 °C 49.0 °F /  9.4 °C 30.0in /  1015.8hPa Calm     42% 0.000in /  0mm 0.00 W/m2
06:29 73.0 °F /  22.8 °C 49.0 °F /  9.4 °C 30.0in /  1015.8hPa Calm     43% 0.000in /  0mm 5.00 W/m2
06:34 73.0 °F /  22.8 °C 48.0 °F /  8.9 °C 30.0in /  1015.8hPa Calm     42% 0.000in /  0mm 7.00 W/m2
06:39 73.0 °F /  22.8 °C 48.0 °F /  8.9 °C 30.0in /  1015.8hPa Calm     42% 0.000in /  0mm 11.00 W/m2
06:44 73.0 °F /  22.8 °C 48.0 °F /  8.9 °C 30.0in /  1015.8hPa Calm     42% 0.000in /  0mm 12.00 W/m2
06:49 73.0 °F /  22.8 °C 49.0 °F /  9.4 °C 30.0in /  1015.8hPa Calm     43% 0.000in /  0mm 16.00 W/m2
06:54 73.0 °F /  22.8 °C 49.0 °F /  9.4 °C 30.0in /  1015.8hPa Calm     43% 0.000in /  0mm 19.00 W/m2
06:59 73.0 °F /  22.8 °C 49.0 °F /  9.4 °C 30.0in /  1015.8hPa Calm     43% 0.000in /  0mm 25.00 W/m2
07:04 73.0 °F /  22.8 °C 49.0 °F /  9.4 °C 30.0in /  1015.8hPa Calm     43% 0.000in /  0mm 28.00 W/m2
07:09 73.0 °F /  22.8 °C 49.0 °F /  9.4 °C 30.0in /  1015.8hPa Calm     43% 0.000in /  0mm 32.00 W/m2
07:14 73.0 °F /  22.8 °C 49.0 °F /  9.4 °C 30.0in /  1015.8hPa Calm     43% 0.000in /  0mm 35.00 W/m2
07:19 73.0 °F /  22.8 °C 49.0 °F /  9.4 °C 30.0in /  1015.8hPa Calm     43% 0.000in /  0mm 40.00 W/m2
07:24 73.0 °F /  22.8 °C 50.0 °F /  10 °C 30.0in /  1015.8hPa Calm     44% 0.000in /  0mm 44.00 W/m2
07:29 73.0 °F /  22.8 °C 49.0 °F /  9.4 °C 30.0in /  1015.8hPa Calm     43% 0.000in /  0mm 49.00 W/m2
07:34 73.0 °F /  22.8 °C 49.0 °F /  9.4 °C 30.0in /  1015.8hPa Calm     43% 0.000in /  0mm 53.00 W/m2
07:39 73.0 °F /  22.8 °C 49.0 °F /  9.4 °C 30.0in /  1015.8hPa Calm     43% 0.000in /  0mm 58.00 W/m2
07:44 73.0 °F /  22.8 °C 50.0 °F /  10 °C 30.0in /  1015.8hPa Calm     44% 0.000in /  0mm 63.00 W/m2
07:49 73.0 °F /  22.8 °C 51.0 °F /  10.6 °C 30.0in /  1015.8hPa Calm     45% 0.000in /  0mm 67.00 W/m2
07:54 74.0 °F /  23.3 °C 51.0 °F /  10.6 °C 30.0in /  1015.8hPa Calm     46% 0.000in /  0mm 74.00 W/m2
07:59 74.0 °F /  23.3 °C 51.0 °F /  10.6 °C 30.0in /  1015.8hPa Calm     46% 0.000in /  0mm 77.00 W/m2
08:04 74.0 °F /  23.3 °C 52.0 °F /  11.1 °C 30.0in /  1015.8hPa Calm     46% 0.000in /  0mm 84.00 W/m2
08:09 74.0 °F /  23.3 °C 53.0 °F /  11.7 °C 30.0in /  1015.8hPa Calm     48% 0.000in /  0mm 90.00 W/m2
08:14 74.0 °F /  23.3 °C 54.0 °F /  12.2 °C 30.0in /  1015.8hPa Calm     49% 0.000in /  0mm 97.00 W/m2
08:19 74.0 °F /  23.3 °C 54.0 °F /  12.2 °C 30.0in /  1015.8hPa Calm     49% 0.000in /  0mm 102.00 W/m2
08:24 74.0 °F /  23.3 °C 54.0 °F /  12.2 °C 30.0in /  1015.8hPa Calm     49% 0.000in /  0mm 109.00 W/m2
08:29 74.0 °F /  23.3 °C 53.0 °F /  11.7 °C 30.0in /  1015.8hPa Calm     48% 0.000in /  0mm 121.00 W/m2
08:34 75.0 °F /  23.9 °C 54.0 °F /  12.2 °C 30.0in /  1015.8hPa Calm     48% 0.000in /  0mm 142.00 W/m2
08:39 75.0 °F /  23.9 °C 53.0 °F /  11.7 °C 30.0in /  1015.8hPa Calm     47% 0.000in /  0mm 135.00 W/m2
08:44 75.0 °F /  23.9 °C 53.0 °F /  11.7 °C 30.0in /  1015.8hPa Calm     47% 0.000in /  0mm 179.00 W/m2
08:49 76.0 °F /  24.4 °C 54.0 °F /  12.2 °C 30.0in /  1015.8hPa Calm     47% 0.000in /  0mm 209.00 W/m2
08:54 76.0 °F /  24.4 °C 55.0 °F /  12.8 °C 30.0in /  1015.8hPa Calm     48% 0.000in /  0mm 225.00 W/m2
08:59 76.0 °F /  24.4 °C 54.0 °F /  12.2 °C 30.0in /  1015.8hPa Calm     47% 0.000in /  0mm 237.00 W/m2
09:04 77.0 °F /  25 °C 55.0 °F /  12.8 °C 30.0in /  1015.8hPa East 2mph /  3.2km/h   46% 0.000in /  0mm 239.00 W/m2
09:09 77.0 °F /  25 °C 56.0 °F /  13.3 °C 30.0in /  1015.8hPa SW 5mph /  8km/h 2mph /  3.2km/h 48% 0.000in /  0mm 248.00 W/m2
09:14 78.0 °F /  25.6 °C 55.0 °F /  12.8 °C 30.0in /  1015.8hPa SW 6mph /  9.7km/h 6mph /  9.7km/h 46% 0.000in /  0mm 262.00 W/m2
09:19 79.0 °F /  26.1 °C 54.0 °F /  12.2 °C 30.0in /  1015.8hPa SW 4mph /  6.4km/h 3mph /  4.8km/h 43% 0.000in /  0mm 269.00 W/m2
09:24 79.0 °F /  26.1 °C 53.0 °F /  11.7 °C 30.0in /  1015.8hPa SW 7mph /  11.3km/h 5mph /  8km/h 41% 0.000in /  0mm 276.00 W/m2
09:29 80.0 °F /  26.7 °C 52.0 °F /  11.1 °C 30.0in /  1015.8hPa SSW 6mph /  9.7km/h 7mph /  11.3km/h 39% 0.000in /  0mm 292.00 W/m2
09:34 80.0 °F /  26.7 °C 52.0 °F /  11.1 °C 30.0in /  1015.8hPa SSW 4mph /  6.4km/h 3mph /  4.8km/h 37% 0.000in /  0mm 297.00 W/m2
09:39 81.0 °F /  27.2 °C 52.0 °F /  11.1 °C 30.0in /  1015.8hPa SSW 4mph /  6.4km/h 3mph /  4.8km/h 37% 0.000in /  0mm 297.00 W/m2
09:44 81.0 °F /  27.2 °C 52.0 °F /  11.1 °C 30.0in /  1015.8hPa SSW 2mph /  3.2km/h 2mph /  3.2km/h 36% 0.000in /  0mm 299.00 W/m2
09:49 82.0 °F /  27.8 °C 53.0 °F /  11.7 °C 30.0in /  1015.8hPa SW 9mph /  14.5km/h 3mph /  4.8km/h 37% 0.000in /  0mm 313.00 W/m2
09:54 82.0 °F /  27.8 °C 53.0 °F /  11.7 °C 30.0in /  1015.8hPa SW 2mph /  3.2km/h 9mph /  14.5km/h 37% 0.000in /  0mm 316.00 W/m2
09:59 82.0 °F /  27.8 °C 53.0 °F /  11.7 °C 30.0in /  1015.8hPa SW 4mph /  6.4km/h 2mph /  3.2km/h 37% 0.000in /  0mm 320.00 W/m2
10:04 82.0 °F /  27.8 °C 53.0 °F /  11.7 °C 30.0in /  1015.8hPa WSW 2mph /  3.2km/h 3mph /  4.8km/h 37% 0.000in /  0mm 323.00 W/m2
10:09 82.0 °F /  27.8 °C 53.0 °F /  11.7 °C 30.0in /  1015.8hPa WSW 2mph /  3.2km/h   37% 0.000in /  0mm 309.00 W/m2
10:14 83.0 °F /  28.3 °C 52.0 °F /  11.1 °C 30.0in /  1015.8hPa SW 6mph /  9.7km/h 4mph /  6.4km/h 35% 0.000in /  0mm 352.00 W/m2
10:19 83.0 °F /  28.3 °C 53.0 °F /  11.7 °C 30.0in /  1015.8hPa SW 4mph /  6.4km/h 6mph /  9.7km/h 36% 0.000in /  0mm 373.00 W/m2
10:23 83.0 °F /  28.3 °C 52.0 °F /  11.1 °C 30.0in /  1015.8hPa SSW 5mph /  8km/h 3mph /  4.8km/h 34% 0.000in /  0mm 390.00 W/m2
10:29 84.0 °F /  28.9 °C 52.0 °F /  11.1 °C 30.0in /  1015.8hPa SW 4mph /  6.4km/h 6mph /  9.7km/h 34% 0.000in /  0mm 446.00 W/m2
10:34 84.0 °F /  28.9 °C 53.0 °F /  11.7 °C 30.0in /  1015.8hPa SW 7mph /  11.3km/h 4mph /  6.4km/h 35% 0.000in /  0mm 462.00 W/m2
10:39 84.0 °F /  28.9 °C 53.0 °F /  11.7 °C 30.0in /  1015.8hPa SSW 9mph /  14.5km/h 7mph /  11.3km/h 34% 0.000in /  0mm 466.00 W/m2
10:44 85.0 °F /  29.4 °C 53.0 °F /  11.7 °C 30.0in /  1015.8hPa SW 7mph /  11.3km/h 9mph /  14.5km/h 34% 0.000in /  0mm 478.00 W/m2
10:49 85.0 °F /  29.4 °C 53.0 °F /  11.7 °C 30.0in /  1015.8hPa WSW 11mph /  17.7km/h 7mph /  11.3km/h 33% 0.000in /  0mm 485.00 W/m2
10:54 86.0 °F /  30 °C 52.0 °F /  11.1 °C 30.0in /  1015.8hPa WSW 6mph /  9.7km/h 10mph /  16.1km/h 32% 0.000in /  0mm 496.00 W/m2
10:59 86.0 °F /  30 °C 52.0 °F /  11.1 °C 30.0in /  1015.8hPa SSW 9mph /  14.5km/h 6mph /  9.7km/h 32% 0.000in /  0mm 510.00 W/m2
11:04 86.0 °F /  30 °C 52.0 °F /  11.1 °C 30.0in /  1015.8hPa WSW 7mph /  11.3km/h 9mph /  14.5km/h 31% 0.000in /  0mm 522.00 W/m2
11:09 87.0 °F /  30.6 °C 52.0 °F /  11.1 °C 30.0in /  1015.8hPa SW 7mph /  11.3km/h 7mph /  11.3km/h 30% 0.000in /  0mm 541.00 W/m2
11:14 87.0 °F /  30.6 °C 52.0 °F /  11.1 °C 30.0in /  1015.8hPa SSW 6mph /  9.7km/h 7mph /  11.3km/h 30% 0.000in /  0mm 550.00 W/m2
11:19 87.0 °F /  30.6 °C 53.0 °F /  11.7 °C 30.0in /  1015.8hPa WSW 2mph /  3.2km/h 6mph /  9.7km/h 31% 0.000in /  0mm 561.00 W/m2
11:24 88.0 °F /  31.1 °C 53.0 °F /  11.7 °C 30.0in /  1015.8hPa SW 7mph /  11.3km/h 5mph /  8km/h 31% 0.000in /  0mm 575.00 W/m2
11:29 88.0 °F /  31.1 °C 53.0 °F /  11.7 °C 30.0in /  1015.8hPa SW 7mph /  11.3km/h 7mph /  11.3km/h 30% 0.000in /  0mm 585.00 W/m2
11:34 89.0 °F /  31.7 °C 53.0 °F /  11.7 °C 30.0in /  1015.8hPa SSW 9mph /  14.5km/h 7mph /  11.3km/h 30% 0.000in /  0mm 578.00 W/m2
11:39 89.0 °F /  31.7 °C 54.0 °F /  12.2 °C 30.0in /  1015.8hPa SSW 7mph /  11.3km/h 9mph /  14.5km/h 30% 0.000in /  0mm 584.00 W/m2
11:44 89.0 °F /  31.7 °C 54.0 °F /  12.2 °C 30.0in /  1015.8hPa West 2mph /  3.2km/h 7mph /  11.3km/h 30% 0.000in /  0mm 598.00 W/m2
11:49 90.0 °F /  32.2 °C 54.0 °F /  12.2 °C 30.0in /  1015.8hPa WSW 6mph /  9.7km/h 2mph /  3.2km/h 30% 0.000in /  0mm 601.00 W/m2
11:54 90.0 °F /  32.2 °C 53.0 °F /  11.7 °C 30.0in /  1015.8hPa WSW 13mph /  20.9km/h 6mph /  9.7km/h 29% 0.000in /  0mm 599.00 W/m2
11:59 90.0 °F /  32.2 °C 54.0 °F /  12.2 °C 30.0in /  1015.8hPa SW 6mph /  9.7km/h 13mph /  20.9km/h 29% 0.000in /  0mm 575.00 W/m2
12:04 90.0 °F /  32.2 °C 54.0 °F /  12.2 °C 30.0in /  1015.8hPa SW 2mph /  3.2km/h 6mph /  9.7km/h 29% 0.000in /  0mm 554.00 W/m2
12:09 90.0 °F /  32.2 °C 54.0 °F /  12.2 °C 30.0in /  1015.8hPa WSW 7mph /  11.3km/h 4mph /  6.4km/h 29% 0.000in /  0mm 568.00 W/m2
12:14 91.0 °F /  32.8 °C 54.0 °F /  12.2 °C 30.0in /  1015.8hPa WSW 11mph /  17.7km/h 7mph /  11.3km/h 29% 0.000in /  0mm 585.00 W/m2
12:19 91.0 °F /  32.8 °C 54.0 °F /  12.2 °C 30.0in /  1015.8hPa WSW 5mph /  8km/h 10mph /  16.1km/h 29% 0.000in /  0mm 594.00 W/m2
12:24 91.0 °F /  32.8 °C 53.0 °F /  11.7 °C 30.0in /  1015.8hPa SW 11mph /  17.7km/h 7mph /  11.3km/h 28% 0.000in /  0mm 603.00 W/m2
12:29 91.0 °F /  32.8 °C 55.0 °F /  12.8 °C 30.0in /  1015.8hPa West 6mph /  9.7km/h 10mph /  16.1km/h 29% 0.000in /  0mm 610.00 W/m2
12:34 92.0 °F /  33.3 °C 54.0 °F /  12.2 °C 30.0in /  1015.8hPa East 6mph /  9.7km/h 3mph /  4.8km/h 28% 0.000in /  0mm 601.00 W/m2
12:39 92.0 °F /  33.3 °C 55.0 °F /  12.8 °C 30.0in /  1015.8hPa North 2mph /  3.2km/h 6mph /  9.7km/h 29% 0.000in /  0mm 615.00 W/m2
12:44 92.0 °F /  33.3 °C 54.0 °F /  12.2 °C 30.0in /  1015.8hPa SSW 6mph /  9.7km/h 3mph /  4.8km/h 28% 0.000in /  0mm 624.00 W/m2
12:49 92.0 °F /  33.3 °C 54.0 °F /  12.2 °C 30.0in /  1015.8hPa SW 11mph /  17.7km/h 9mph /  14.5km/h 27% 0.000in /  0mm 628.00 W/m2
12:54 92.0 °F /  33.3 °C 54.0 °F /  12.2 °C 30.0in /  1015.8hPa WSW 10mph /  16.1km/h 10mph /  16.1km/h 27% 0.000in /  0mm 633.00 W/m2
12:59 93.0 °F /  33.9 °C 54.0 °F /  12.2 °C 30.0in /  1015.8hPa WSW 6mph /  9.7km/h 7mph /  11.3km/h 27% 0.000in /  0mm 631.00 W/m2
13:04 93.0 °F /  33.9 °C 54.0 °F /  12.2 °C 30.0in /  1015.8hPa SW 9mph /  14.5km/h 9mph /  14.5km/h 27% 0.000in /  0mm 631.00 W/m2
13:09 93.0 °F /  33.9 °C 54.0 °F /  12.2 °C 30.0in /  1015.8hPa SSW 5mph /  8km/h 9mph /  14.5km/h 27% 0.000in /  0mm 608.00 W/m2
13:14 93.0 °F /  33.9 °C 55.0 °F /  12.8 °C 30.0in /  1015.8hPa WSW 7mph /  11.3km/h 3mph /  4.8km/h 28% 0.000in /  0mm 617.00 W/m2
13:19 93.0 °F /  33.9 °C 55.0 °F /  12.8 °C 30.0in /  1015.8hPa WSW 9mph /  14.5km/h 7mph /  11.3km/h 28% 0.000in /  0mm 617.00 W/m2
13:24 93.0 °F /  33.9 °C 55.0 °F /  12.8 °C 29.9in /  1012.4hPa SW 9mph /  14.5km/h 9mph /  14.5km/h 28% 0.000in /  0mm 598.00 W/m2
13:29 93.0 °F /  33.9 °C 55.0 °F /  12.8 °C 29.9in /  1012.4hPa WSW 2mph /  3.2km/h 6mph /  9.7km/h 28% 0.000in /  0mm 606.00 W/m2
13:34 93.0 °F /  33.9 °C 55.0 °F /  12.8 °C 29.9in /  1012.4hPa SW 12mph /  19.3km/h 5mph /  8km/h 28% 0.000in /  0mm 606.00 W/m2
13:39 93.0 °F /  33.9 °C 55.0 °F /  12.8 °C 29.9in /  1012.4hPa SSW 14mph /  22.5km/h 14mph /  22.5km/h 28% 0.000in /  0mm 610.00 W/m2
13:44 93.0 °F /  33.9 °C 55.0 °F /  12.8 °C 29.9in /  1012.4hPa West 9mph /  14.5km/h 7mph /  11.3km/h 28% 0.000in /  0mm 598.00 W/m2
13:49 93.0 °F /  33.9 °C 55.0 °F /  12.8 °C 29.9in /  1012.4hPa SW 9mph /  14.5km/h 9mph /  14.5km/h 28% 0.000in /  0mm 594.00 W/m2
13:54 94.0 °F /  34.4 °C 55.0 °F /  12.8 °C 29.9in /  1012.4hPa South 7mph /  11.3km/h 7mph /  11.3km/h 27% 0.000in /  0mm 601.00 W/m2
13:59 94.0 °F /  34.4 °C 56.0 °F /  13.3 °C 29.9in /  1012.4hPa SW 9mph /  14.5km/h 7mph /  11.3km/h 28% 0.000in /  0mm 592.00 W/m2
14:04 94.0 °F /  34.4 °C 57.0 °F /  13.9 °C 29.9in /  1012.4hPa WSW 7mph /  11.3km/h 9mph /  14.5km/h 29% 0.000in /  0mm 594.00 W/m2
14:09 94.0 °F /  34.4 °C 56.0 °F /  13.3 °C 29.9in /  1012.4hPa WSW 7mph /  11.3km/h 7mph /  11.3km/h 28% 0.000in /  0mm 580.00 W/m2
14:14 94.0 °F /  34.4 °C 56.0 °F /  13.3 °C 29.9in /  1012.4hPa SW 7mph /  11.3km/h 5mph /  8km/h 28% 0.000in /  0mm 554.00 W/m2
14:19 94.0 °F /  34.4 °C 57.0 °F /  13.9 °C 29.9in /  1012.4hPa SW 6mph /  9.7km/h 7mph /  11.3km/h 29% 0.000in /  0mm 545.00 W/m2
14:24 94.0 °F /  34.4 °C 56.0 °F /  13.3 °C 29.9in /  1012.4hPa WSW 6mph /  9.7km/h 3mph /  4.8km/h 28% 0.000in /  0mm 545.00 W/m2
14:29 95.0 °F /  35 °C 55.0 °F /  12.8 °C 29.9in /  1012.4hPa SW 9mph /  14.5km/h 6mph /  9.7km/h 27% 0.000in /  0mm 545.00 W/m2
14:34 95.0 °F /  35 °C 55.0 °F /  12.8 °C 29.9in /  1012.4hPa WSW 9mph /  14.5km/h 9mph /  14.5km/h 27% 0.000in /  0mm 533.00 W/m2
14:39 95.0 °F /  35 °C 57.0 °F /  13.9 °C 29.9in /  1012.4hPa SW 4mph /  6.4km/h 3mph /  4.8km/h 28% 0.000in /  0mm 517.00 W/m2
14:44 95.0 °F /  35 °C 58.0 °F /  14.4 °C 29.9in /  1012.4hPa South 6mph /  9.7km/h 2mph /  3.2km/h 29% 0.000in /  0mm 501.00 W/m2
14:49 95.0 °F /  35 °C 55.0 °F /  12.8 °C 29.9in /  1012.4hPa WSW 7mph /  11.3km/h 6mph /  9.7km/h 26% 0.000in /  0mm 490.00 W/m2
14:54 95.0 °F /  35 °C 55.0 °F /  12.8 °C 29.9in /  1012.4hPa SW 7mph /  11.3km/h 7mph /  11.3km/h 26% 0.000in /  0mm 496.00 W/m2
14:59 95.0 °F /  35 °C 57.0 °F /  13.9 °C 29.9in /  1012.4hPa SW 4mph /  6.4km/h 7mph /  11.3km/h 28% 0.000in /  0mm 494.00 W/m2
15:04 95.0 °F /  35 °C 56.0 °F /  13.3 °C 29.9in /  1012.4hPa SW 7mph /  11.3km/h 3mph /  4.8km/h 27% 0.000in /  0mm 482.00 W/m2
15:09 95.0 °F /  35 °C 57.0 °F /  13.9 °C 29.9in /  1012.4hPa WSW 6mph /  9.7km/h 7mph /  11.3km/h 28% 0.000in /  0mm 464.00 W/m2
15:14 95.0 °F /  35 °C 56.0 °F /  13.3 °C 29.9in /  1012.4hPa SW 6mph /  9.7km/h 6mph /  9.7km/h 27% 0.000in /  0mm 443.00 W/m2
15:19 95.0 °F /  35 °C 55.0 °F /  12.8 °C 29.9in /  1012.4hPa South 7mph /  11.3km/h 6mph /  9.7km/h 26% 0.000in /  0mm 431.00 W/m2
15:24 95.0 °F /  35 °C 57.0 °F /  13.9 °C 29.9in /  1012.4hPa SW 6mph /  9.7km/h 7mph /  11.3km/h 28% 0.000in /  0mm 406.00 W/m2
15:29 95.0 °F /  35 °C 58.0 °F /  14.4 °C 29.9in /  1012.4hPa SW 2mph /  3.2km/h 6mph /  9.7km/h 29% 0.000in /  0mm 374.00 W/m2
15:34 95.0 °F /  35 °C 57.0 °F /  13.9 °C 29.9in /  1012.4hPa WSW 2mph /  3.2km/h 2mph /  3.2km/h 28% 0.000in /  0mm 325.00 W/m2
15:39 95.0 °F /  35 °C 57.0 °F /  13.9 °C 29.9in /  1012.4hPa SSE 2mph /  3.2km/h 2mph /  3.2km/h 28% 0.000in /  0mm 348.00 W/m2
15:44 95.0 °F /  35 °C 57.0 °F /  13.9 °C 29.9in /  1012.4hPa SW 7mph /  11.3km/h 2mph /  3.2km/h 28% 0.000in /  0mm 359.00 W/m2
15:49 95.0 °F /  35 °C 58.0 °F /  14.4 °C 29.9in /  1012.4hPa SW 7mph /  11.3km/h 7mph /  11.3km/h 29% 0.000in /  0mm 376.00 W/m2
15:54 95.0 °F /  35 °C 58.0 °F /  14.4 °C 29.9in /  1012.4hPa South 4mph /  6.4km/h 7mph /  11.3km/h 29% 0.000in /  0mm 376.00 W/m2
15:59 95.0 °F /  35 °C 56.0 °F /  13.3 °C 29.9in /  1012.4hPa WSW 4mph /  6.4km/h 3mph /  4.8km/h 27% 0.000in /  0mm 373.00 W/m2
16:04 95.0 °F /  35 °C 55.0 °F /  12.8 °C 29.9in /  1012.4hPa West 7mph /  11.3km/h 4mph /  6.4km/h 27% 0.000in /  0mm 371.00 W/m2
16:09 95.0 °F /  35 °C 55.0 °F /  12.8 °C 29.9in /  1012.4hPa West 2mph /  3.2km/h 7mph /  11.3km/h 27% 0.000in /  0mm 369.00 W/m2
16:14 95.0 °F /  35 °C 57.0 °F /  13.9 °C 29.9in /  1012.4hPa SW 4mph /  6.4km/h 2mph /  3.2km/h 29% 0.000in /  0mm 371.00 W/m2
16:19 94.0 °F /  34.4 °C 57.0 °F /  13.9 °C 29.9in /  1012.4hPa South 9mph /  14.5km/h 5mph /  8km/h 29% 0.000in /  0mm 364.00 W/m2
16:24 94.0 °F /  34.4 °C 56.0 °F /  13.3 °C 29.9in /  1012.4hPa SSW 11mph /  17.7km/h 9mph /  14.5km/h 28% 0.000in /  0mm 350.00 W/m2
16:29 95.0 °F /  35 °C 55.0 °F /  12.8 °C 29.9in /  1012.4hPa SW 10mph /  16.1km/h 10mph /  16.1km/h 27% 0.000in /  0mm 336.00 W/m2
16:34 95.0 °F /  35 °C 55.0 °F /  12.8 °C 29.9in /  1012.4hPa SW 9mph /  14.5km/h 6mph /  9.7km/h 27% 0.000in /  0mm 325.00 W/m2
16:39 94.0 °F /  34.4 °C 55.0 °F /  12.8 °C 29.9in /  1012.4hPa WSW 6mph /  9.7km/h 9mph /  14.5km/h 27% 0.000in /  0mm 306.00 W/m2
16:44 94.0 °F /  34.4 °C 57.0 °F /  13.9 °C 29.9in /  1012.4hPa NW 7mph /  11.3km/h 6mph /  9.7km/h 29% 0.000in /  0mm 292.00 W/m2
16:49 94.0 °F /  34.4 °C 55.0 °F /  12.8 °C 29.9in /  1012.4hPa SW 6mph /  9.7km/h 7mph /  11.3km/h 27% 0.000in /  0mm 278.00 W/m2
16:54 94.0 °F /  34.4 °C 58.0 °F /  14.4 °C 29.9in /  1012.4hPa SSE 2mph /  3.2km/h 6mph /  9.7km/h 30% 0.000in /  0mm 265.00 W/m2
16:59 94.0 °F /  34.4 °C 58.0 °F /  14.4 °C 29.9in /  1012.4hPa SSE 4mph /  6.4km/h 2mph /  3.2km/h 30% 0.000in /  0mm 251.00 W/m2
17:04 94.0 °F /  34.4 °C 56.0 °F /  13.3 °C 29.9in /  1012.4hPa West 2mph /  3.2km/h 3mph /  4.8km/h 28% 0.000in /  0mm 246.00 W/m2
17:09 94.0 °F /  34.4 °C 57.0 °F /  13.9 °C 29.9in /  1012.4hPa WNW 2mph /  3.2km/h 2mph /  3.2km/h 29% 0.000in /  0mm 237.00 W/m2
17:14 94.0 °F /  34.4 °C 56.0 °F /  13.3 °C 29.9in /  1012.4hPa WSW 5mph /  8km/h 2mph /  3.2km/h 28% 0.000in /  0mm 221.00 W/m2
17:19 94.0 °F /  34.4 °C 55.0 °F /  12.8 °C 29.9in /  1012.4hPa WSW 7mph /  11.3km/h 6mph /  9.7km/h 27% 0.000in /  0mm 211.00 W/m2
17:24 94.0 °F /  34.4 °C 55.0 °F /  12.8 °C 29.9in /  1012.4hPa WSW 6mph /  9.7km/h 7mph /  11.3km/h 27% 0.000in /  0mm 200.00 W/m2
17:29 94.0 °F /  34.4 °C 57.0 °F /  13.9 °C 29.9in /  1012.4hPa SE 2mph /  3.2km/h 6mph /  9.7km/h 29% 0.000in /  0mm 195.00 W/m2
17:34 94.0 °F /  34.4 °C 56.0 °F /  13.3 °C 29.9in /  1012.4hPa SW 4mph /  6.4km/h 2mph /  3.2km/h 28% 0.000in /  0mm 162.00 W/m2
17:39 94.0 °F /  34.4 °C 56.0 °F /  13.3 °C 29.9in /  1012.4hPa SW 4mph /  6.4km/h 3mph /  4.8km/h 28% 0.000in /  0mm 148.00 W/m2
17:44 93.0 °F /  33.9 °C 55.0 °F /  12.8 °C 29.9in /  1012.4hPa SW 2mph /  3.2km/h 2mph /  3.2km/h 28% 0.000in /  0mm 135.00 W/m2
El Dorado Weather
Compliments of Weather Underground - 2 mb